Home > Products > Valid Products > TAF

000
FTUS43 KGLD 020529
TAFMCK
TAF
KMCK 020529Z 0206/0306 VRB05KT P6SM SKC
     FM021800 17011KT P6SM SKC
     FM030000 15008KT P6SM SKC=



000
FTUS43 KGLD 020529
TAFMCK
TAF
KMCK 020529Z 0206/0306 VRB05KT P6SM SKC
     FM021800 17011KT P6SM SKC
     FM030000 15008KT P6SM SKC=



000
FTUS43 KGLD 020529
TAFGLD
TAF
KGLD 020529Z 0206/0306 19011KT P6SM SCT150
     FM020900 VRB05KT P6SM FEW015
     FM021600 18011G19KT P6SM SKC
     FM030000 17008KT P6SM SKC=



000
FTUS43 KGLD 012328
TAFMCK
TAF
KMCK 012328Z 0200/0224 VRB05KT P6SM SKC
     FM021800 17010KT P6SM SKC=



000
FTUS43 KGLD 012328
TAFGLD
TAF
KGLD 012328Z 0200/0224 15007KT P6SM SKC
     FM020900 VRB05KT P6SM FEW015
     FM021500 18011G19KT P6SM SKC=



000
FTUS43 KGLD 012328
TAFMCK
TAF
KMCK 012328Z 0200/0224 VRB05KT P6SM SKC
     FM021800 17010KT P6SM SKC=



000
FTUS43 KGLD 011741
TAFMCK
TAF
KMCK 011741Z 0118/0218 31005KT P6SM OVC100
     FM012200 VRB05KT P6SM SCT100
     FM020100 12005KT P6SM SKC
     FM020600 VRB04KT P6SM SCT100
     FM021500 18010KT P6SM SKC=



000
FTUS43 KGLD 011741
TAFGLD
TAF
KGLD 011741Z 0118/0218 VRB05KT P6SM BKN090
     FM012100 14007KT P6SM SKC
     FM020700 VRB05KT P6SM SKC
     FM021500 18010KT P6SM SKC=



000
FTUS43 KGLD 011741
TAFMCK
TAF
KMCK 011741Z 0118/0218 31005KT P6SM OVC100
     FM012200 VRB05KT P6SM SCT100
     FM020100 12005KT P6SM SKC
     FM020600 VRB04KT P6SM SCT100
     FM021500 18010KT P6SM SKC=



000
FTUS43 KGLD 011120
TAFGLD
TAF
KGLD 011120Z 0112/0212 32005KT P6SM SKC
     FM011400 36008KT P6SM FEW100
     FM012100 14007KT P6SM SKC
     FM020700 20006KT P6SM SKC=



000
FTUS43 KGLD 011120
TAFMCK
TAF
KMCK 011120Z 0112/0212 32008KT P6SM SKC
     FM012200 VRB05KT P6SM SKC
     FM020500 22003KT P6SM SKC=



000
FTUS43 KGLD 011120
TAFMCK
TAF
KMCK 011120Z 0112/0212 32008KT P6SM SKC
     FM012200 VRB05KT P6SM SKC
     FM020500 22003KT P6SM SKC=



000
FTUS43 KGLD 010532
TAFGLD
TAF
KGLD 010532Z 0106/0206 34007KT P6SM SKC
     FM011000 VRB05KT 6SM BR SKC
     FM011400 36008KT P6SM FEW100
     FM012100 14007KT P6SM SKC=



000
FTUS43 KGLD 010532
TAFMCK
TAF
KMCK 010532Z 0106/0206 33008KT P6SM BKN100
     FM011000 34008KT P6SM SKC
     FM012200 VRB05KT P6SM SKC=



000
FTUS43 KGLD 010532
TAFMCK
TAF
KMCK 010532Z 0106/0206 33008KT P6SM BKN100
     FM011000 34008KT P6SM SKC
     FM012200 VRB05KT P6SM SKC=



000
FTUS43 KGLD 010209 AAA
TAFMCK
TAF AMD
KMCK 010209Z 0102/0124 34006KT P6SM BKN150
     FM010400 33008KT P6SM VCSH BKN100
     FM010700 33007KT P6SM BKN150
     FM011500 36008KT P6SM SKC=



000
FTUS43 KGLD 010209 AAA
TAFMCK
TAF AMD
KMCK 010209Z 0102/0124 34006KT P6SM BKN150
     FM010400 33008KT P6SM VCSH BKN100
     FM010700 33007KT P6SM BKN150
     FM011500 36008KT P6SM SKC=



000
FTUS43 KGLD 010113 AAA
TAFGLD
TAF AMD
KGLD 010113Z 0101/0124 05011KT P6SM VCTS SCT060CB BKN100
      TEMPO 0101/0102 6SM -TSRA OVC060CB
     FM010400 36008KT P6SM SCT150
     FM011500 04006KT P6SM SKC=



000
FTUS43 KGLD 312322
TAFGLD
TAF
KGLD 312322Z 0100/0124 05011KT P6SM VCTS SCT060CB BKN100
     FM010400 36008KT P6SM SCT150
     FM011500 04006KT P6SM SKC=



000
FTUS43 KGLD 312322
TAFMCK
TAF
KMCK 312322Z 0100/0124 02010KT P6SM VCTS SCT060CB BKN150
      TEMPO 0100/0104 34015G25KT 6SM TSRA BR OVC060CB
     FM010500 33007KT P6SM BKN150=



000
FTUS43 KGLD 312153 AAA
TAFMCK
TAF AMD
KMCK 312153Z 3122/0118 02013KT P6SM BKN150
     FM010000 02011KT P6SM VCTS SCT060CB BKN150
      TEMPO 0101/0104 34015G25KT 6SM TSRA BR OVC060CB
     FM010500 33007KT P6SM SCT150=



000
FTUS43 KGLD 312153 AAA
TAFMCK
TAF AMD
KMCK 312153Z 3122/0118 02013KT P6SM BKN150
     FM010000 02011KT P6SM VCTS SCT060CB BKN150
      TEMPO 0101/0104 34015G25KT 6SM TSRA BR OVC060CB
     FM010500 33007KT P6SM SCT150=



000
FTUS43 KGLD 312148 AAA
TAFGLD
TAF AMD
KGLD 312148Z 3122/0118 03011G19KT P6SM BKN150
     FM312300 03011G19KT P6SM VCTS SCT060CB BKN100
     FM312330 32015G25KT 6SM TSRA BR OVC060CB
     FM010100 35011KT P6SM VCTS SCT060CB BKN100
     FM010400 35007KT P6SM FEW150=



000
FTUS43 KGLD 311739
TAFMCK
TAF
KMCK 311739Z 3118/0118 33011KT P6SM SKC
     FM010000 04008G16KT P6SM VCTS SCT060CB BKN150
     FM010500 33007KT P6SM SCT150=



000
FTUS43 KGLD 311739
TAFGLD
TAF
KGLD 311739Z 3118/0118 36012G18KT P6SM BKN150
     FM312300 02010KT P6SM VCTS SCT050CB BKN100
     FM010400 35007KT P6SM FEW150=



000
FTUS43 KGLD 311739
TAFMCK
TAF
KMCK 311739Z 3118/0118 33011KT P6SM SKC
     FM010000 04008G16KT P6SM VCTS SCT060CB BKN150
     FM010500 33007KT P6SM SCT150=



000
FTUS43 KGLD 311120
TAFMCK
TAF
KMCK 311120Z 3112/0112 22006KT P6SM SCT150
     FM311600 32008KT P6SM BKN250
     FM312100 04008G16KT P6SM VCTS SCT060CB BKN150
     FM010400 34006KT P6SM VCSH SCT060 BKN150=



000
FTUS43 KGLD 311120
TAFGLD
TAF
KGLD 311120Z 3112/0112 17008KT P6SM BKN150
     FM311600 29008KT P6SM BKN250
     FM312100 36010G18KT P6SM VCTS SCT080CB BKN150
     FM010300 03008KT P6SM VCSH SCT080 SCT150
     FM010600 36008KT P6SM SCT120=



000
FTUS43 KGLD 311120
TAFMCK
TAF
KMCK 311120Z 3112/0112 22006KT P6SM SCT150
     FM311600 32008KT P6SM BKN250
     FM312100 04008G16KT P6SM VCTS SCT060CB BKN150
     FM010400 34006KT P6SM VCSH SCT060 BKN150=



000
FTUS43 KGLD 310615 AAA
TAFGLD
TAF AMD
KGLD 310615Z 3106/0106 20012G24KT P6SM VCTS BKN100CB WS012/20045KT
     FM310900 23008KT P6SM BKN150
     FM311600 31008KT P6SM BKN250
     FM312100 36006KT P6SM SCT080 BKN150
     FM010300 03008KT P6SM SCT150=



000
FTUS43 KGLD 310529
TAFGLD
TAF
KGLD 310529Z 3106/0106 20009KT P6SM VCTS BKN100CB WS012/20045KT
     FM310900 23008KT P6SM BKN150
     FM311600 31008KT P6SM BKN250
     FM312100 36006KT P6SM SCT080 BKN150
     FM010300 03008KT P6SM SCT150=



000
FTUS43 KGLD 310529
TAFMCK
TAF
KMCK 310529Z 3106/0106 16014KT P6SM BKN100 WS012/21050KT
     FM310900 19007KT P6SM VCSH SCT080 BKN150
     FM311200 VRB06KT P6SM SCT150
     FM312100 04008KT P6SM VCTS SCT060CB BKN150
     FM010400 36006KT P6SM BKN150=



000
FTUS43 KGLD 310529
TAFMCK
TAF
KMCK 310529Z 3106/0106 16014KT P6SM BKN100 WS012/21050KT
     FM310900 19007KT P6SM VCSH SCT080 BKN150
     FM311200 VRB06KT P6SM SCT150
     FM312100 04008KT P6SM VCTS SCT060CB BKN150
     FM010400 36006KT P6SM BKN150=



000
FTUS43 KGLD 302334
TAFMCK
TAF
KMCK 302334Z 3100/3124 16010KT P6SM SKC
     FM310300 16010KT P6SM BKN100 WS005/21050KT
     FM310900 VRB06KT P6SM BKN150=



000
FTUS43 KGLD 302334
TAFMCK
TAF
KMCK 302334Z 3100/3124 16010KT P6SM SKC
     FM310300 16010KT P6SM BKN100 WS005/21050KT
     FM310900 VRB06KT P6SM BKN150=



000
FTUS43 KGLD 302334
TAFGLD
TAF
KGLD 302334Z 3100/3124 20013KT P6SM SKC
     FM310300 17011KT P6SM BKN100 WS006/20045KT
     FM310800 21008KT P6SM BKN150
     FM311600 31008KT P6SM BKN250=



000
FTUS43 KGLD 301733
TAFGLD
TAF
KGLD 301733Z 3018/3118 19013G21KT P6SM SKC
     FM302200 20013G24KT P6SM SCT100
     FM310100 16013KT P6SM SCT070 BKN150
     FM310400 16012G20KT P6SM VCTS SCT070CB BKN150
     FM310800 19010KT P6SM FEW250
     FM311500 28010KT P6SM SCT250=



000
FTUS43 KGLD 301733
TAFMCK
TAF
KMCK 301733Z 3018/3118 13009KT P6SM SKC
     FM302000 17012KT P6SM FEW060
     FM310300 15013G20KT P6SM SCT100 BKN150
     FM310600 15013G20KT P6SM VCSH BKN100
     FM310900 17011KT P6SM FEW250=



000
FTUS43 KGLD 301733
TAFMCK
TAF
KMCK 301733Z 3018/3118 13009KT P6SM SKC
     FM302000 17012KT P6SM FEW060
     FM310300 15013G20KT P6SM SCT100 BKN150
     FM310600 15013G20KT P6SM VCSH BKN100
     FM310900 17011KT P6SM FEW250=



000
FTUS43 KGLD 301120
TAFMCK
TAF
KMCK 301120Z 3012/3112 VRB05KT P6SM SCT090
     FM301500 16010KT P6SM SKC
     FM301900 17014G22KT P6SM FEW090
     FM310300 16010KT P6SM VCSH SCT080 BKN150=



000
FTUS43 KGLD 301120
TAFMCK
TAF
KMCK 301120Z 3012/3112 VRB05KT P6SM SCT090
     FM301500 16010KT P6SM SKC
     FM301900 17014G22KT P6SM FEW090
     FM310300 16010KT P6SM VCSH SCT080 BKN150=



000
FTUS43 KGLD 301120
TAFGLD
TAF
KGLD 301120Z 3012/3112 VRB05KT P6SM SCT080
     FM301400 20010KT P6SM SKC
     FM301700 18017G25KT P6SM SCT120
     FM310300 16013KT P6SM VCSH SCT070 BKN150=



    US Dept of Commerce
    National Oceanic and Atmospheric Administration
    National Weather Service
    1325 East West Highway
    Silver Spring, MD 20910
    Page Author: NWS Internet Services Team
Disclaimer
Information Quality
Credits
Glossary
Privacy Policy
Freedom of Information Act (FOIA)
About Us
Career Opportunities